AU-0054 weather

Delatite Airstrip
Delatite, Victoria, Australia

Public forecast

Using degrees Celsius for public forecast. Weather courtesy of forecast.io.

METAR (pilot weather report)

Closest report is Wangaratta Airport, 44.4 nm (82.1 km) N. Retrieved 2019/03/19 07:00 UTC (1 hour ago):

YWGT 190700Z AUTO 22004KT 170V250 9999 // ////// 31/11 Q1010

TAF (pilot weather forecast)

Closest forecast is Wangaratta Airport, 44.4 nm (82.1 km) N. Retrieved 2019/03/19 02:33 UTC (6 hours ago):

TAF TAF YWGT 190102Z 1902/1914 22006KT 9000 FU NSC FM191000 16005KT 8000 FU NSC